sensor_id;sensor_type;location;lat;lon;timestamp;pressure;altitude;pressure_sealevel;temperature;humidity
41862;BME280;27537;57.134;-2.136;2023-12-04T00:01:53;100173.25;;;4.92;100.00
41862;BME280;27537;57.134;-2.136;2023-12-04T00:04:20;100176.69;;;4.94;100.00
41862;BME280;27537;57.134;-2.136;2023-12-04T00:06:46;100167.31;;;4.87;100.00
41862;BME280;27537;57.134;-2.136;2023-12-04T00:09:13;100169.28;;;4.77;100.00
41862;BME280;27537;57.134;-2.136;2023-12-04T00:11:40;100170.09;;;4.79;100.00
41862;BME280;27537;57.134;-2.136;2023-12-04T00:14:06;100167.59;;;4.74;100.00
41862;BME280;27537;57.134;-2.136;2023-12-04T00:16:34;100157.06;;;4.43;100.00
41862;BME280;27537;57.134;-2.136;2023-12-04T00:19:04;100165.22;;;4.64;100.00
41862;BME280;27537;57.134;-2.136;2023-12-04T00:21:31;100153.97;;;4.65;100.00
41862;BME280;27537;57.134;-2.136;2023-12-04T00:23:57;100158.41;;;4.60;100.00
41862;BME280;27537;57.134;-2.136;2023-12-04T00:26:24;100167.97;;;4.57;100.00
41862;BME280;27537;57.134;-2.136;2023-12-04T00:28:51;100173.47;;;4.42;100.00
41862;BME280;27537;57.134;-2.136;2023-12-04T00:31:17;100154.94;;;4.22;100.00
41862;BME280;27537;57.134;-2.136;2023-12-04T00:33:44;100151.44;;;4.23;100.00
41862;BME280;27537;57.134;-2.136;2023-12-04T00:36:11;100146.31;;;4.19;100.00
41862;BME280;27537;57.134;-2.136;2023-12-04T00:38:38;100133.34;;;4.19;100.00
41862;BME280;27537;57.134;-2.136;2023-12-04T00:41:05;100135.66;;;4.33;100.00
41862;BME280;27537;57.134;-2.136;2023-12-04T00:43:31;100128.34;;;4.51;100.00
41862;BME280;27537;57.134;-2.136;2023-12-04T00:45:58;100132.50;;;4.60;100.00
41862;BME280;27537;57.134;-2.136;2023-12-04T00:48:25;100127.34;;;4.58;100.00
41862;BME280;27537;57.134;-2.136;2023-12-04T00:50:51;100137.31;;;4.77;100.00
41862;BME280;27537;57.134;-2.136;2023-12-04T00:53:18;100138.09;;;4.80;100.00
41862;BME280;27537;57.134;-2.136;2023-12-04T00:55:45;100131.63;;;4.61;100.00
41862;BME280;27537;57.134;-2.136;2023-12-04T00:58:11;100132.00;;;4.42;100.00
41862;BME280;27537;57.134;-2.136;2023-12-04T01:00:39;100117.59;;;4.30;100.00
41862;BME280;27537;57.134;-2.136;2023-12-04T01:03:06;100120.38;;;4.21;100.00
41862;BME280;27537;57.134;-2.136;2023-12-04T01:05:32;100129.97;;;4.16;100.00
41862;BME280;27537;57.134;-2.136;2023-12-04T01:07:59;100127.56;;;4.07;100.00
41862;BME280;27537;57.134;-2.136;2023-12-04T01:10:26;100133.50;;;4.12;100.00
41862;BME280;27537;57.134;-2.136;2023-12-04T01:12:53;100131.78;;;4.12;100.00
41862;BME280;27537;57.134;-2.136;2023-12-04T01:15:20;100124.78;;;4.16;100.00
41862;BME280;27537;57.134;-2.136;2023-12-04T01:17:46;100105.78;;;4.17;100.00
41862;BME280;27537;57.134;-2.136;2023-12-04T01:20:13;100109.47;;;4.46;100.00
41862;BME280;27537;57.134;-2.136;2023-12-04T01:22:40;100123.22;;;4.49;100.00
41862;BME280;27537;57.134;-2.136;2023-12-04T01:25:07;100113.06;;;4.38;100.00
41862;BME280;27537;57.134;-2.136;2023-12-04T01:27:34;100120.75;;;4.45;100.00
41862;BME280;27537;57.134;-2.136;2023-12-04T01:30:05;100110.34;;;4.46;100.00
41862;BME280;27537;57.134;-2.136;2023-12-04T01:32:34;100096.56;;;4.82;100.00
41862;BME280;27537;57.134;-2.136;2023-12-04T01:35:02;100073.75;;;4.94;100.00
41862;BME280;27537;57.134;-2.136;2023-12-04T01:37:29;100087.97;;;5.14;100.00
41862;BME280;27537;57.134;-2.136;2023-12-04T01:39:55;100090.31;;;5.23;100.00
41862;BME280;27537;57.134;-2.136;2023-12-04T01:42:22;100082.28;;;5.32;100.00
41862;BME280;27537;57.134;-2.136;2023-12-04T01:44:49;100075.50;;;5.27;100.00
41862;BME280;27537;57.134;-2.136;2023-12-04T01:47:17;100081.59;;;5.26;100.00
41862;BME280;27537;57.134;-2.136;2023-12-04T01:49:44;100084.44;;;5.15;100.00
41862;BME280;27537;57.134;-2.136;2023-12-04T01:52:11;100085.53;;;5.06;100.00
41862;BME280;27537;57.134;-2.136;2023-12-04T01:54:38;100097.88;;;4.98;100.00
41862;BME280;27537;57.134;-2.136;2023-12-04T01:57:05;100095.34;;;4.95;100.00
41862;BME280;27537;57.134;-2.136;2023-12-04T01:59:32;100085.94;;;4.91;100.00
41862;BME280;27537;57.134;-2.136;2023-12-04T02:01:59;100085.69;;;5.02;100.00
41862;BME280;27537;57.134;-2.136;2023-12-04T02:04:27;100095.44;;;4.90;100.00
41862;BME280;27537;57.134;-2.136;2023-12-04T02:06:54;100090.19;;;4.93;100.00
41862;BME280;27537;57.134;-2.136;2023-12-04T02:09:20;100077.88;;;5.02;100.00
41862;BME280;27537;57.134;-2.136;2023-12-04T02:11:48;100093.78;;;5.22;100.00
41862;BME280;27537;57.134;-2.136;2023-12-04T02:14:15;100086.66;;;5.30;100.00
41862;BME280;27537;57.134;-2.136;2023-12-04T02:16:42;100061.66;;;5.28;100.00
41862;BME280;27537;57.134;-2.136;2023-12-04T02:19:13;100071.00;;;5.33;100.00
41862;BME280;27537;57.134;-2.136;2023-12-04T02:21:40;100065.94;;;5.29;100.00
41862;BME280;27537;57.134;-2.136;2023-12-04T02:24:07;100074.69;;;5.25;100.00
41862;BME280;27537;57.134;-2.136;2023-12-04T02:26:46;100098.38;;;5.12;100.00
41862;BME280;27537;57.134;-2.136;2023-12-04T02:29:17;100080.09;;;5.17;100.00
41862;BME280;27537;57.134;-2.136;2023-12-04T02:31:46;100089.47;;;5.23;100.00
41862;BME280;27537;57.134;-2.136;2023-12-04T02:34:15;100079.06;;;5.24;100.00
41862;BME280;27537;57.134;-2.136;2023-12-04T02:36:43;100088.59;;;5.22;100.00
41862;BME280;27537;57.134;-2.136;2023-12-04T02:39:10;100085.06;;;5.26;100.00
41862;BME280;27537;57.134;-2.136;2023-12-04T02:41:37;100079.84;;;5.26;100.00
41862;BME280;27537;57.134;-2.136;2023-12-04T02:44:04;100086.31;;;5.44;100.00
41862;BME280;27537;57.134;-2.136;2023-12-04T02:46:31;100087.19;;;5.43;100.00
41862;BME280;27537;57.134;-2.136;2023-12-04T02:48:57;100090.50;;;5.48;100.00
41862;BME280;27537;57.134;-2.136;2023-12-04T02:51:24;100075.19;;;5.39;100.00
41862;BME280;27537;57.134;-2.136;2023-12-04T02:53:53;100077.78;;;5.39;100.00
41862;BME280;27537;57.134;-2.136;2023-12-04T02:56:19;100064.72;;;5.42;100.00
41862;BME280;27537;57.134;-2.136;2023-12-04T02:58:46;100076.66;;;5.49;100.00
41862;BME280;27537;57.134;-2.136;2023-12-04T03:01:13;100078.09;;;5.60;100.00
41862;BME280;27537;57.134;-2.136;2023-12-04T03:03:39;100069.69;;;5.50;100.00
41862;BME280;27537;57.134;-2.136;2023-12-04T03:06:06;100058.06;;;5.65;100.00
41862;BME280;27537;57.134;-2.136;2023-12-04T03:08:33;100074.94;;;5.80;100.00
41862;BME280;27537;57.134;-2.136;2023-12-04T03:11:01;100070.69;;;5.77;100.00
41862;BME280;27537;57.134;-2.136;2023-12-04T03:13:29;100059.28;;;5.83;100.00
41862;BME280;27537;57.134;-2.136;2023-12-04T03:15:56;100071.84;;;5.67;100.00
41862;BME280;27537;57.134;-2.136;2023-12-04T03:18:23;100062.22;;;5.70;100.00
41862;BME280;27537;57.134;-2.136;2023-12-04T03:20:51;100067.09;;;5.81;100.00
41862;BME280;27537;57.134;-2.136;2023-12-04T03:23:18;100071.06;;;5.63;100.00
41862;BME280;27537;57.134;-2.136;2023-12-04T03:25:45;100081.94;;;5.78;100.00
41862;BME280;27537;57.134;-2.136;2023-12-04T03:28:11;100067.69;;;5.61;100.00
41862;BME280;27537;57.134;-2.136;2023-12-04T03:30:39;100080.06;;;5.83;100.00
41862;BME280;27537;57.134;-2.136;2023-12-04T03:33:06;100083.19;;;5.94;100.00
41862;BME280;27537;57.134;-2.136;2023-12-04T03:35:33;100087.16;;;5.76;100.00
41862;BME280;27537;57.134;-2.136;2023-12-04T03:38:00;100074.84;;;5.83;100.00
41862;BME280;27537;57.134;-2.136;2023-12-04T03:40:27;100073.78;;;5.90;100.00
41862;BME280;27537;57.134;-2.136;2023-12-04T03:42:53;100063.44;;;5.88;100.00
41862;BME280;27537;57.134;-2.136;2023-12-04T03:45:20;100062.59;;;5.88;100.00
41862;BME280;27537;57.134;-2.136;2023-12-04T03:47:47;100061.50;;;5.97;100.00
41862;BME280;27537;57.134;-2.136;2023-12-04T03:50:13;100068.09;;;6.07;100.00
41862;BME280;27537;57.134;-2.136;2023-12-04T03:52:40;100079.41;;;6.06;100.00
41862;BME280;27537;57.134;-2.136;2023-12-04T03:55:08;100064.34;;;5.86;100.00
41862;BME280;27537;57.134;-2.136;2023-12-04T03:57:35;100072.78;;;5.96;100.00
41862;BME280;27537;57.134;-2.136;2023-12-04T04:00:03;100070.75;;;6.05;100.00
41862;BME280;27537;57.134;-2.136;2023-12-04T04:02:29;100064.59;;;5.78;100.00
41862;BME280;27537;57.134;-2.136;2023-12-04T04:04:57;100058.03;;;5.96;100.00
41862;BME280;27537;57.134;-2.136;2023-12-04T04:07:23;100058.84;;;5.67;100.00
41862;BME280;27537;57.134;-2.136;2023-12-04T04:09:50;100046.47;;;5.45;100.00
41862;BME280;27537;57.134;-2.136;2023-12-04T04:12:17;100041.28;;;5.45;100.00
41862;BME280;27537;57.134;-2.136;2023-12-04T04:14:44;100057.97;;;5.37;100.00
41862;BME280;27537;57.134;-2.136;2023-12-04T04:17:10;100049.56;;;5.58;100.00
41862;BME280;27537;57.134;-2.136;2023-12-04T04:19:37;100043.44;;;5.61;100.00
41862;BME280;27537;57.134;-2.136;2023-12-04T04:22:04;100033.28;;;5.53;100.00
41862;BME280;27537;57.134;-2.136;2023-12-04T04:24:30;100042.63;;;5.59;100.00
41862;BME280;27537;57.134;-2.136;2023-12-04T04:26:57;100041.81;;;5.57;100.00
41862;BME280;27537;57.134;-2.136;2023-12-04T04:29:24;100028.34;;;5.44;100.00
41862;BME280;27537;57.134;-2.136;2023-12-04T04:31:50;100009.69;;;5.29;100.00
41862;BME280;27537;57.134;-2.136;2023-12-04T04:34:19;100038.50;;;5.51;100.00
41862;BME280;27537;57.134;-2.136;2023-12-04T04:36:46;100040.38;;;5.46;100.00
41862;BME280;27537;57.134;-2.136;2023-12-04T04:39:13;100036.41;;;5.64;100.00
41862;BME280;27537;57.134;-2.136;2023-12-04T04:41:40;100041.44;;;5.70;100.00
41862;BME280;27537;57.134;-2.136;2023-12-04T04:44:07;100046.91;;;5.61;100.00
41862;BME280;27537;57.134;-2.136;2023-12-04T04:46:33;100045.19;;;5.60;100.00
41862;BME280;27537;57.134;-2.136;2023-12-04T04:49:00;100053.78;;;5.62;100.00
41862;BME280;27537;57.134;-2.136;2023-12-04T04:51:28;100060.47;;;5.38;100.00
41862;BME280;27537;57.134;-2.136;2023-12-04T04:53:56;100056.16;;;5.39;100.00
41862;BME280;27537;57.134;-2.136;2023-12-04T04:56:22;100053.16;;;5.21;100.00
41862;BME280;27537;57.134;-2.136;2023-12-04T04:58:49;100036.47;;;5.31;100.00
41862;BME280;27537;57.134;-2.136;2023-12-04T05:01:19;100040.28;;;5.49;100.00
41862;BME280;27537;57.134;-2.136;2023-12-04T05:03:45;100031.50;;;5.54;100.00
41862;BME280;27537;57.134;-2.136;2023-12-04T05:06:12;100044.66;;;5.49;100.00
41862;BME280;27537;57.134;-2.136;2023-12-04T05:08:39;100040.84;;;5.61;100.00
41862;BME280;27537;57.134;-2.136;2023-12-04T05:11:06;100040.06;;;5.57;100.00
41862;BME280;27537;57.134;-2.136;2023-12-04T05:13:32;100037.13;;;5.69;100.00
41862;BME280;27537;57.134;-2.136;2023-12-04T05:16:00;100056.34;;;5.64;100.00
41862;BME280;27537;57.134;-2.136;2023-12-04T05:18:27;100044.84;;;5.73;100.00
41862;BME280;27537;57.134;-2.136;2023-12-04T05:20:53;100058.94;;;5.64;100.00
41862;BME280;27537;57.134;-2.136;2023-12-04T05:23:20;100045.56;;;5.78;100.00
41862;BME280;27537;57.134;-2.136;2023-12-04T05:25:46;100053.91;;;5.87;100.00
41862;BME280;27537;57.134;-2.136;2023-12-04T05:28:16;100049.50;;;5.61;100.00
41862;BME280;27537;57.134;-2.136;2023-12-04T05:30:43;100066.13;;;5.85;100.00
41862;BME280;27537;57.134;-2.136;2023-12-04T05:33:10;100061.34;;;5.70;100.00
41862;BME280;27537;57.134;-2.136;2023-12-04T05:35:37;100070.59;;;5.80;100.00
41862;BME280;27537;57.134;-2.136;2023-12-04T05:38:04;100060.88;;;5.87;100.00
41862;BME280;27537;57.134;-2.136;2023-12-04T05:40:31;100062.78;;;5.80;100.00
41862;BME280;27537;57.134;-2.136;2023-12-04T05:42:57;100046.59;;;5.72;100.00
41862;BME280;27537;57.134;-2.136;2023-12-04T05:45:24;100071.91;;;5.97;100.00
41862;BME280;27537;57.134;-2.136;2023-12-04T05:47:51;100076.16;;;5.99;100.00
41862;BME280;27537;57.134;-2.136;2023-12-04T05:50:19;100065.50;;;5.77;100.00
41862;BME280;27537;57.134;-2.136;2023-12-04T05:52:46;100078.59;;;5.73;100.00
41862;BME280;27537;57.134;-2.136;2023-12-04T05:55:12;100084.03;;;5.95;100.00
41862;BME280;27537;57.134;-2.136;2023-12-04T05:57:39;100089.50;;;5.85;100.00
41862;BME280;27537;57.134;-2.136;2023-12-04T06:00:07;100084.19;;;5.90;100.00
41862;BME280;27537;57.134;-2.136;2023-12-04T06:02:39;100074.84;;;5.83;100.00
41862;BME280;27537;57.134;-2.136;2023-12-04T06:05:06;100082.41;;;5.90;100.00
41862;BME280;27537;57.134;-2.136;2023-12-04T06:07:35;100074.50;;;5.95;100.00
41862;BME280;27537;57.134;-2.136;2023-12-04T06:10:02;100071.63;;;6.06;100.00
41862;BME280;27537;57.134;-2.136;2023-12-04T06:12:32;100087.28;;;6.03;100.00
41862;BME280;27537;57.134;-2.136;2023-12-04T06:14:59;100078.63;;;6.04;100.00
41862;BME280;27537;57.134;-2.136;2023-12-04T06:17:26;100070.97;;;5.98;100.00
41862;BME280;27537;57.134;-2.136;2023-12-04T06:19:54;100087.56;;;5.92;100.00
41862;BME280;27537;57.134;-2.136;2023-12-04T06:22:20;100083.06;;;6.00;100.00
41862;BME280;27537;57.134;-2.136;2023-12-04T06:24:48;100078.38;;;6.12;100.00
41862;BME280;27537;57.134;-2.136;2023-12-04T06:27:17;100068.22;;;6.04;100.00
41862;BME280;27537;57.134;-2.136;2023-12-04T06:29:48;100080.63;;;5.93;100.00
41862;BME280;27537;57.134;-2.136;2023-12-04T06:32:19;100075.38;;;5.96;100.00
41862;BME280;27537;57.134;-2.136;2023-12-04T06:34:46;100079.59;;;6.00;100.00
41862;BME280;27537;57.134;-2.136;2023-12-04T06:37:14;100075.19;;;6.02;100.00
41862;BME280;27537;57.134;-2.136;2023-12-04T06:39:41;100090.13;;;5.94;100.00
41862;BME280;27537;57.134;-2.136;2023-12-04T06:42:09;100081.13;;;5.76;100.00
41862;BME280;27537;57.134;-2.136;2023-12-04T06:44:36;100080.72;;;5.89;100.00
41862;BME280;27537;57.134;-2.136;2023-12-04T06:47:04;100088.94;;;6.05;100.00
41862;BME280;27537;57.134;-2.136;2023-12-04T06:49:32;100083.53;;;6.13;100.00
41862;BME280;27537;57.134;-2.136;2023-12-04T06:52:00;100080.31;;;6.05;100.00
41862;BME280;27537;57.134;-2.136;2023-12-04T06:54:27;100097.22;;;6.20;100.00
41862;BME280;27537;57.134;-2.136;2023-12-04T06:56:54;100081.09;;;6.07;100.00
41862;BME280;27537;57.134;-2.136;2023-12-04T06:59:21;100080.22;;;6.08;100.00
41862;BME280;27537;57.134;-2.136;2023-12-04T07:01:47;100069.94;;;6.03;100.00
41862;BME280;27537;57.134;-2.136;2023-12-04T07:04:15;100080.25;;;6.06;100.00
41862;BME280;27537;57.134;-2.136;2023-12-04T07:06:48;100065.56;;;6.05;100.00
41862;BME280;27537;57.134;-2.136;2023-12-04T07:09:15;100072.50;;;6.35;100.00
41862;BME280;27537;57.134;-2.136;2023-12-04T07:11:43;100078.53;;;6.35;100.00
41862;BME280;27537;57.134;-2.136;2023-12-04T07:14:10;100062.16;;;6.32;100.00
41862;BME280;27537;57.134;-2.136;2023-12-04T07:16:43;100059.06;;;6.20;100.00
41862;BME280;27537;57.134;-2.136;2023-12-04T07:19:10;100076.63;;;6.40;100.00
41862;BME280;27537;57.134;-2.136;2023-12-04T07:21:38;100075.53;;;6.19;100.00
41862;BME280;27537;57.134;-2.136;2023-12-04T07:24:06;100080.38;;;6.32;100.00
41862;BME280;27537;57.134;-2.136;2023-12-04T07:26:36;100081.41;;;6.26;100.00
41862;BME280;27537;57.134;-2.136;2023-12-04T07:29:03;100095.50;;;6.19;100.00
41862;BME280;27537;57.134;-2.136;2023-12-04T07:31:30;100094.31;;;6.29;100.00
41862;BME280;27537;57.134;-2.136;2023-12-04T07:33:57;100110.13;;;6.21;100.00
41862;BME280;27537;57.134;-2.136;2023-12-04T07:36:27;100115.66;;;6.40;100.00
41862;BME280;27537;57.134;-2.136;2023-12-04T07:38:54;100104.44;;;6.38;100.00
41862;BME280;27537;57.134;-2.136;2023-12-04T07:41:21;100107.88;;;6.39;100.00
41862;BME280;27537;57.134;-2.136;2023-12-04T07:43:48;100110.59;;;6.64;100.00
41862;BME280;27537;57.134;-2.136;2023-12-04T07:46:15;100102.81;;;6.64;100.00
41862;BME280;27537;57.134;-2.136;2023-12-04T07:48:42;100112.16;;;6.70;100.00
41862;BME280;27537;57.134;-2.136;2023-12-04T07:51:10;100119.28;;;6.63;100.00
41862;BME280;27537;57.134;-2.136;2023-12-04T07:53:37;100109.72;;;6.63;100.00
41862;BME280;27537;57.134;-2.136;2023-12-04T07:56:04;100120.47;;;6.53;100.00
41862;BME280;27537;57.134;-2.136;2023-12-04T07:58:31;100131.88;;;6.49;100.00
41862;BME280;27537;57.134;-2.136;2023-12-04T08:00:58;100125.25;;;6.67;100.00
41862;BME280;27537;57.134;-2.136;2023-12-04T08:03:26;100124.81;;;6.80;100.00
41862;BME280;27537;57.134;-2.136;2023-12-04T08:05:53;100122.94;;;6.57;100.00
41862;BME280;27537;57.134;-2.136;2023-12-04T08:08:20;100126.53;;;6.53;100.00
41862;BME280;27537;57.134;-2.136;2023-12-04T08:10:47;100133.31;;;6.59;100.00
41862;BME280;27537;57.134;-2.136;2023-12-04T08:13:14;100116.81;;;6.58;100.00
41862;BME280;27537;57.134;-2.136;2023-12-04T08:15:43;100127.91;;;6.65;100.00
41862;BME280;27537;57.134;-2.136;2023-12-04T08:18:10;100128.53;;;6.45;100.00
41862;BME280;27537;57.134;-2.136;2023-12-04T08:20:37;100142.03;;;6.56;100.00
41862;BME280;27537;57.134;-2.136;2023-12-04T08:23:07;100138.22;;;6.40;100.00
41862;BME280;27537;57.134;-2.136;2023-12-04T08:25:33;100143.16;;;6.47;100.00
41862;BME280;27537;57.134;-2.136;2023-12-04T08:28:03;100153.44;;;6.52;100.00
41862;BME280;27537;57.134;-2.136;2023-12-04T08:30:30;100148.09;;;6.57;100.00
41862;BME280;27537;57.134;-2.136;2023-12-04T08:32:57;100155.72;;;6.63;100.00
41862;BME280;27537;57.134;-2.136;2023-12-04T08:35:23;100160.59;;;6.74;100.00
41862;BME280;27537;57.134;-2.136;2023-12-04T08:37:50;100154.59;;;6.72;100.00
41862;BME280;27537;57.134;-2.136;2023-12-04T08:40:17;100167.97;;;6.59;100.00
41862;BME280;27537;57.134;-2.136;2023-12-04T08:42:44;100164.38;;;6.63;100.00
41862;BME280;27537;57.134;-2.136;2023-12-04T08:45:11;100173.25;;;6.56;100.00
41862;BME280;27537;57.134;-2.136;2023-12-04T08:47:38;100165.97;;;6.39;100.00
41862;BME280;27537;57.134;-2.136;2023-12-04T08:50:06;100171.59;;;6.54;100.00
41862;BME280;27537;57.134;-2.136;2023-12-04T08:52:33;100167.13;;;6.59;100.00
41862;BME280;27537;57.134;-2.136;2023-12-04T08:55:00;100159.41;;;6.56;100.00
41862;BME280;27537;57.134;-2.136;2023-12-04T08:57:27;100162.16;;;6.50;100.00
41862;BME280;27537;57.134;-2.136;2023-12-04T08:59:54;100148.94;;;6.29;100.00
41862;BME280;27537;57.134;-2.136;2023-12-04T09:02:21;100168.75;;;6.61;100.00
41862;BME280;27537;57.134;-2.136;2023-12-04T09:04:47;100162.03;;;6.54;100.00
41862;BME280;27537;57.134;-2.136;2023-12-04T09:07:15;100181.78;;;6.61;100.00
41862;BME280;27537;57.134;-2.136;2023-12-04T09:09:45;100186.56;;;6.45;100.00
41862;BME280;27537;57.134;-2.136;2023-12-04T09:12:13;100182.09;;;6.51;100.00
41862;BME280;27537;57.134;-2.136;2023-12-04T09:14:40;100188.91;;;6.55;100.00
41862;BME280;27537;57.134;-2.136;2023-12-04T09:17:07;100186.09;;;6.62;100.00
41862;BME280;27537;57.134;-2.136;2023-12-04T09:19:34;100197.66;;;6.52;100.00
41862;BME280;27537;57.134;-2.136;2023-12-04T09:22:01;100218.50;;;6.51;100.00
41862;BME280;27537;57.134;-2.136;2023-12-04T09:24:42;100221.75;;;6.59;100.00
41862;BME280;27537;57.134;-2.136;2023-12-04T09:27:11;100232.72;;;6.69;100.00
41862;BME280;27537;57.134;-2.136;2023-12-04T09:29:38;100211.34;;;6.59;100.00
41862;BME280;27537;57.134;-2.136;2023-12-04T09:32:04;100225.66;;;6.72;100.00
41862;BME280;27537;57.134;-2.136;2023-12-04T09:34:32;100223.59;;;6.55;100.00
41862;BME280;27537;57.134;-2.136;2023-12-04T09:36:59;100217.09;;;6.69;100.00
41862;BME280;27537;57.134;-2.136;2023-12-04T09:39:36;100224.16;;;6.65;100.00
41862;BME280;27537;57.134;-2.136;2023-12-04T09:42:03;100236.13;;;6.71;100.00
41862;BME280;27537;57.134;-2.136;2023-12-04T09:44:30;100243.44;;;6.58;100.00
41862;BME280;27537;57.134;-2.136;2023-12-04T09:46:58;100239.59;;;6.41;100.00
41862;BME280;27537;57.134;-2.136;2023-12-04T09:49:28;100268.72;;;6.53;100.00
41862;BME280;27537;57.134;-2.136;2023-12-04T09:51:57;100263.78;;;6.43;100.00
41862;BME280;27537;57.134;-2.136;2023-12-04T09:54:24;100265.31;;;6.51;100.00
41862;BME280;27537;57.134;-2.136;2023-12-04T09:56:53;100249.75;;;6.49;100.00
41862;BME280;27537;57.134;-2.136;2023-12-04T09:59:23;100267.63;;;6.30;100.00
41862;BME280;27537;57.134;-2.136;2023-12-04T10:01:52;100256.88;;;6.42;100.00
41862;BME280;27537;57.134;-2.136;2023-12-04T10:04:19;100266.69;;;6.64;100.00
41862;BME280;27537;57.134;-2.136;2023-12-04T10:06:50;100264.91;;;6.66;100.00
41862;BME280;27537;57.134;-2.136;2023-12-04T10:09:18;100261.97;;;6.47;100.00
41862;BME280;27537;57.134;-2.136;2023-12-04T10:11:45;100261.72;;;6.55;100.00
41862;BME280;27537;57.134;-2.136;2023-12-04T10:14:16;100270.19;;;6.63;100.00
41862;BME280;27537;57.134;-2.136;2023-12-04T10:16:44;100257.41;;;6.55;100.00
41862;BME280;27537;57.134;-2.136;2023-12-04T10:19:25;100257.63;;;6.46;100.00
41862;BME280;27537;57.134;-2.136;2023-12-04T10:21:58;100254.91;;;6.51;100.00
41862;BME280;27537;57.134;-2.136;2023-12-04T10:24:32;100274.34;;;6.69;100.00
41862;BME280;27537;57.134;-2.136;2023-12-04T10:27:09;100258.81;;;6.65;100.00
41862;BME280;27537;57.134;-2.136;2023-12-04T10:32:08;100261.22;;;6.73;100.00
41862;BME280;27537;57.134;-2.136;2023-12-04T10:34:35;100259.19;;;6.83;100.00
41862;BME280;27537;57.134;-2.136;2023-12-04T10:37:03;100251.69;;;6.72;100.00
41862;BME280;27537;57.134;-2.136;2023-12-04T10:39:45;100268.34;;;6.96;100.00
41862;BME280;27537;57.134;-2.136;2023-12-04T10:42:27;100250.53;;;6.82;100.00
41862;BME280;27537;57.134;-2.136;2023-12-04T10:44:57;100266.53;;;6.98;100.00
41862;BME280;27537;57.134;-2.136;2023-12-04T10:47:25;100264.09;;;6.92;100.00
41862;BME280;27537;57.134;-2.136;2023-12-04T10:49:52;100265.06;;;6.90;100.00
41862;BME280;27537;57.134;-2.136;2023-12-04T10:52:19;100245.38;;;6.81;100.00
41862;BME280;27537;57.134;-2.136;2023-12-04T10:54:50;100252.84;;;6.92;100.00
41862;BME280;27537;57.134;-2.136;2023-12-04T10:57:25;100254.41;;;6.97;100.00
41862;BME280;27537;57.134;-2.136;2023-12-04T10:59:57;100253.56;;;6.97;100.00
41862;BME280;27537;57.134;-2.136;2023-12-04T11:02:26;100235.72;;;6.84;100.00
41862;BME280;27537;57.134;-2.136;2023-12-04T11:04:58;100243.59;;;6.81;100.00
41862;BME280;27537;57.134;-2.136;2023-12-04T11:07:26;100237.66;;;7.06;100.00
41862;BME280;27537;57.134;-2.136;2023-12-04T11:09:54;100254.78;;;7.13;100.00
41862;BME280;27537;57.134;-2.136;2023-12-04T11:12:23;100266.69;;;6.92;100.00
41862;BME280;27537;57.134;-2.136;2023-12-04T11:14:56;100275.94;;;7.02;100.00
41862;BME280;27537;57.134;-2.136;2023-12-04T11:17:25;100288.16;;;7.00;100.00
41862;BME280;27537;57.134;-2.136;2023-12-04T11:19:55;100294.84;;;7.09;100.00
41862;BME280;27537;57.134;-2.136;2023-12-04T11:22:25;100297.94;;;6.92;100.00
41862;BME280;27537;57.134;-2.136;2023-12-04T11:24:52;100290.19;;;6.91;100.00
41862;BME280;27537;57.134;-2.136;2023-12-04T11:27:19;100295.09;;;7.01;100.00
41862;BME280;27537;57.134;-2.136;2023-12-04T11:29:47;100296.22;;;6.93;100.00
41862;BME280;27537;57.134;-2.136;2023-12-04T11:32:15;100271.50;;;7.06;100.00
41862;BME280;27537;57.134;-2.136;2023-12-04T11:34:50;100274.97;;;7.07;100.00
41862;BME280;27537;57.134;-2.136;2023-12-04T11:37:19;100290.53;;;7.08;100.00
41862;BME280;27537;57.134;-2.136;2023-12-04T11:39:47;100289.22;;;7.23;100.00
41862;BME280;27537;57.134;-2.136;2023-12-04T11:42:23;100271.75;;;6.98;100.00
41862;BME280;27537;57.134;-2.136;2023-12-04T11:44:59;100267.38;;;6.99;100.00
41862;BME280;27537;57.134;-2.136;2023-12-04T11:47:28;100289.06;;;7.28;100.00
41862;BME280;27537;57.134;-2.136;2023-12-04T11:49:55;100285.03;;;7.19;100.00
41862;BME280;27537;57.134;-2.136;2023-12-04T11:52:33;100279.19;;;7.11;100.00
41862;BME280;27537;57.134;-2.136;2023-12-04T11:55:03;100288.31;;;7.24;100.00
41862;BME280;27537;57.134;-2.136;2023-12-04T11:57:34;100282.63;;;7.11;100.00
41862;BME280;27537;57.134;-2.136;2023-12-04T12:02:37;100265.50;;;7.04;100.00
41862;BME280;27537;57.134;-2.136;2023-12-04T12:05:24;100284.34;;;7.12;100.00
41862;BME280;27537;57.134;-2.136;2023-12-04T12:07:53;100264.41;;;7.11;100.00
41862;BME280;27537;57.134;-2.136;2023-12-04T12:10:21;100284.38;;;7.11;100.00
41862;BME280;27537;57.134;-2.136;2023-12-04T12:12:48;100293.09;;;7.10;100.00
41862;BME280;27537;57.134;-2.136;2023-12-04T12:15:15;100257.50;;;6.82;100.00
41862;BME280;27537;57.134;-2.136;2023-12-04T12:17:41;100242.00;;;6.77;100.00
41862;BME280;27537;57.134;-2.136;2023-12-04T12:20:10;100248.94;;;6.78;100.00
41862;BME280;27537;57.134;-2.136;2023-12-04T12:22:38;100243.25;;;6.94;100.00
41862;BME280;27537;57.134;-2.136;2023-12-04T12:25:10;100234.84;;;6.86;100.00
41862;BME280;27537;57.134;-2.136;2023-12-04T12:27:38;100236.38;;;7.19;100.00
41862;BME280;27537;57.134;-2.136;2023-12-04T12:30:06;100243.22;;;7.22;100.00
41862;BME280;27537;57.134;-2.136;2023-12-04T12:32:36;100239.41;;;7.34;100.00
41862;BME280;27537;57.134;-2.136;2023-12-04T12:35:03;100239.44;;;7.32;100.00
41862;BME280;27537;57.134;-2.136;2023-12-04T12:37:34;100241.91;;;7.37;100.00
41862;BME280;27537;57.134;-2.136;2023-12-04T12:40:03;100237.91;;;7.27;100.00
41862;BME280;27537;57.134;-2.136;2023-12-04T12:42:31;100255.31;;;7.25;100.00
41862;BME280;27537;57.134;-2.136;2023-12-04T12:45:01;100262.94;;;7.31;100.00
41862;BME280;27537;57.134;-2.136;2023-12-04T12:47:29;100277.88;;;7.24;100.00
41862;BME280;27537;57.134;-2.136;2023-12-04T12:49:56;100279.97;;;7.13;100.00